sensor_id;sensor_type;location;lat;lon;timestamp;P1;durP1;ratioP1;P2;durP2;ratioP2
18013;SDS011;9132;47.946;10.394;2023-04-05T00:00:33;6.73;;;5.30;;
18013;SDS011;9132;47.946;10.394;2023-04-05T00:02:59;6.73;;;4.63;;
18013;SDS011;9132;47.946;10.394;2023-04-05T00:05:27;6.63;;;4.87;;
18013;SDS011;9132;47.946;10.394;2023-04-05T00:07:55;6.00;;;4.97;;
18013;SDS011;9132;47.946;10.394;2023-04-05T00:10:21;5.53;;;4.93;;
18013;SDS011;9132;47.946;10.394;2023-04-05T00:12:48;5.23;;;4.63;;
18013;SDS011;9132;47.946;10.394;2023-04-05T00:15:14;5.13;;;4.63;;
18013;SDS011;9132;47.946;10.394;2023-04-05T00:17:41;5.37;;;4.33;;
18013;SDS011;9132;47.946;10.394;2023-04-05T00:20:08;7.80;;;5.20;;
18013;SDS011;9132;47.946;10.394;2023-04-05T00:22:36;6.20;;;4.70;;
18013;SDS011;9132;47.946;10.394;2023-04-05T00:25:03;6.73;;;5.27;;
18013;SDS011;9132;47.946;10.394;2023-04-05T00:27:29;6.53;;;4.83;;
18013;SDS011;9132;47.946;10.394;2023-04-05T00:29:56;6.33;;;4.70;;
18013;SDS011;9132;47.946;10.394;2023-04-05T00:32:22;5.77;;;4.83;;
18013;SDS011;9132;47.946;10.394;2023-04-05T00:34:48;6.47;;;5.37;;
18013;SDS011;9132;47.946;10.394;2023-04-05T00:37:15;7.03;;;5.23;;
18013;SDS011;9132;47.946;10.394;2023-04-05T00:39:43;5.70;;;5.00;;
18013;SDS011;9132;47.946;10.394;2023-04-05T00:42:10;8.47;;;5.03;;
18013;SDS011;9132;47.946;10.394;2023-04-05T00:44:36;5.37;;;4.80;;
18013;SDS011;9132;47.946;10.394;2023-04-05T00:47:03;6.80;;;5.40;;
18013;SDS011;9132;47.946;10.394;2023-04-05T00:49:29;5.73;;;4.57;;
18013;SDS011;9132;47.946;10.394;2023-04-05T00:51:57;6.73;;;5.03;;
18013;SDS011;9132;47.946;10.394;2023-04-05T00:54:23;6.40;;;4.93;;
18013;SDS011;9132;47.946;10.394;2023-04-05T00:56:52;7.70;;;5.10;;
18013;SDS011;9132;47.946;10.394;2023-04-05T00:59:18;6.30;;;5.20;;
18013;SDS011;9132;47.946;10.394;2023-04-05T01:01:45;6.00;;;5.13;;
18013;SDS011;9132;47.946;10.394;2023-04-05T01:04:19;6.13;;;5.47;;
18013;SDS011;9132;47.946;10.394;2023-04-05T01:06:58;5.50;;;4.70;;
18013;SDS011;9132;47.946;10.394;2023-04-05T01:09:29;7.30;;;5.27;;
18013;SDS011;9132;47.946;10.394;2023-04-05T01:11:58;7.10;;;5.40;;
18013;SDS011;9132;47.946;10.394;2023-04-05T01:14:26;5.67;;;4.70;;
18013;SDS011;9132;47.946;10.394;2023-04-05T01:16:52;7.70;;;5.33;;
18013;SDS011;9132;47.946;10.394;2023-04-05T01:19:22;5.37;;;4.70;;
18013;SDS011;9132;47.946;10.394;2023-04-05T01:22:01;5.67;;;4.80;;
18013;SDS011;9132;47.946;10.394;2023-04-05T01:24:41;5.87;;;5.23;;
18013;SDS011;9132;47.946;10.394;2023-04-05T01:27:13;8.07;;;5.30;;
18013;SDS011;9132;47.946;10.394;2023-04-05T01:29:45;7.07;;;5.20;;
18013;SDS011;9132;47.946;10.394;2023-04-05T01:35:00;6.90;;;5.30;;
18013;SDS011;9132;47.946;10.394;2023-04-05T01:37:30;7.53;;;5.87;;
18013;SDS011;9132;47.946;10.394;2023-04-05T01:39:58;6.73;;;6.10;;
18013;SDS011;9132;47.946;10.394;2023-04-05T01:42:25;9.13;;;5.97;;
18013;SDS011;9132;47.946;10.394;2023-04-05T01:44:53;8.27;;;5.80;;
18013;SDS011;9132;47.946;10.394;2023-04-05T01:47:19;7.37;;;4.90;;
18013;SDS011;9132;47.946;10.394;2023-04-05T01:49:46;7.57;;;5.20;;
18013;SDS011;9132;47.946;10.394;2023-04-05T01:52:12;8.47;;;5.73;;
18013;SDS011;9132;47.946;10.394;2023-04-05T01:54:39;5.17;;;4.67;;
18013;SDS011;9132;47.946;10.394;2023-04-05T01:57:05;5.87;;;5.23;;
18013;SDS011;9132;47.946;10.394;2023-04-05T01:59:32;6.70;;;5.30;;
18013;SDS011;9132;47.946;10.394;2023-04-05T02:01:59;7.17;;;5.30;;
18013;SDS011;9132;47.946;10.394;2023-04-05T02:04:26;6.13;;;4.83;;
18013;SDS011;9132;47.946;10.394;2023-04-05T02:06:52;6.90;;;5.33;;
18013;SDS011;9132;47.946;10.394;2023-04-05T02:09:18;7.03;;;5.03;;
18013;SDS011;9132;47.946;10.394;2023-04-05T02:11:45;5.83;;;4.80;;
18013;SDS011;9132;47.946;10.394;2023-04-05T02:14:11;5.80;;;5.07;;
18013;SDS011;9132;47.946;10.394;2023-04-05T02:16:38;6.10;;;4.40;;
18013;SDS011;9132;47.946;10.394;2023-04-05T02:19:06;6.07;;;4.77;;
18013;SDS011;9132;47.946;10.394;2023-04-05T02:21:32;7.13;;;5.07;;
18013;SDS011;9132;47.946;10.394;2023-04-05T02:24:00;7.77;;;5.37;;
18013;SDS011;9132;47.946;10.394;2023-04-05T02:26:27;5.80;;;5.17;;
18013;SDS011;9132;47.946;10.394;2023-04-05T02:28:53;5.47;;;4.77;;
18013;SDS011;9132;47.946;10.394;2023-04-05T02:31:19;7.03;;;5.67;;
18013;SDS011;9132;47.946;10.394;2023-04-05T02:33:46;6.47;;;5.13;;
18013;SDS011;9132;47.946;10.394;2023-04-05T02:36:14;6.90;;;5.03;;
18013;SDS011;9132;47.946;10.394;2023-04-05T02:38:41;6.23;;;4.80;;
18013;SDS011;9132;47.946;10.394;2023-04-05T02:41:07;6.03;;;5.33;;
18013;SDS011;9132;47.946;10.394;2023-04-05T02:43:34;6.67;;;4.70;;
18013;SDS011;9132;47.946;10.394;2023-04-05T02:46:01;6.43;;;4.70;;
18013;SDS011;9132;47.946;10.394;2023-04-05T02:48:27;6.40;;;5.10;;
18013;SDS011;9132;47.946;10.394;2023-04-05T02:50:53;5.30;;;4.80;;
18013;SDS011;9132;47.946;10.394;2023-04-05T02:53:21;5.70;;;5.10;;
18013;SDS011;9132;47.946;10.394;2023-04-05T02:55:50;7.17;;;5.00;;
18013;SDS011;9132;47.946;10.394;2023-04-05T02:58:17;7.47;;;5.47;;
18013;SDS011;9132;47.946;10.394;2023-04-05T03:00:44;8.73;;;5.17;;
18013;SDS011;9132;47.946;10.394;2023-04-05T03:03:10;11.80;;;5.40;;
18013;SDS011;9132;47.946;10.394;2023-04-05T03:05:37;6.57;;;5.30;;
18013;SDS011;9132;47.946;10.394;2023-04-05T03:08:03;8.00;;;5.20;;
18013;SDS011;9132;47.946;10.394;2023-04-05T03:10:31;6.53;;;4.73;;
18013;SDS011;9132;47.946;10.394;2023-04-05T03:13:00;8.87;;;5.30;;
18013;SDS011;9132;47.946;10.394;2023-04-05T03:15:26;9.13;;;4.90;;
18013;SDS011;9132;47.946;10.394;2023-04-05T03:17:53;7.33;;;5.40;;
18013;SDS011;9132;47.946;10.394;2023-04-05T03:20:21;7.70;;;5.27;;
18013;SDS011;9132;47.946;10.394;2023-04-05T03:22:47;7.23;;;5.40;;
18013;SDS011;9132;47.946;10.394;2023-04-05T03:25:14;7.97;;;5.17;;
18013;SDS011;9132;47.946;10.394;2023-04-05T03:27:42;8.20;;;5.17;;
18013;SDS011;9132;47.946;10.394;2023-04-05T03:30:09;7.53;;;5.60;;
18013;SDS011;9132;47.946;10.394;2023-04-05T03:32:35;6.73;;;5.67;;
18013;SDS011;9132;47.946;10.394;2023-04-05T03:35:02;7.37;;;5.17;;
18013;SDS011;9132;47.946;10.394;2023-04-05T03:37:28;6.53;;;5.33;;
18013;SDS011;9132;47.946;10.394;2023-04-05T03:39:55;6.00;;;4.90;;
18013;SDS011;9132;47.946;10.394;2023-04-05T03:42:21;5.73;;;5.10;;
18013;SDS011;9132;47.946;10.394;2023-04-05T03:44:51;7.33;;;5.90;;
18013;SDS011;9132;47.946;10.394;2023-04-05T03:47:17;8.97;;;5.80;;
18013;SDS011;9132;47.946;10.394;2023-04-05T03:49:44;9.13;;;5.40;;
18013;SDS011;9132;47.946;10.394;2023-04-05T03:52:10;6.20;;;5.03;;
18013;SDS011;9132;47.946;10.394;2023-04-05T03:54:37;7.10;;;5.13;;
18013;SDS011;9132;47.946;10.394;2023-04-05T03:57:04;6.47;;;5.80;;
18013;SDS011;9132;47.946;10.394;2023-04-05T03:59:31;7.07;;;5.07;;
18013;SDS011;9132;47.946;10.394;2023-04-05T04:01:59;7.43;;;5.60;;
18013;SDS011;9132;47.946;10.394;2023-04-05T04:04:25;16.67;;;6.27;;
18013;SDS011;9132;47.946;10.394;2023-04-05T04:06:52;8.00;;;5.77;;
18013;SDS011;9132;47.946;10.394;2023-04-05T04:09:19;8.00;;;6.37;;
18013;SDS011;9132;47.946;10.394;2023-04-05T04:11:46;12.13;;;7.57;;
18013;SDS011;9132;47.946;10.394;2023-04-05T04:14:13;14.50;;;8.97;;
18013;SDS011;9132;47.946;10.394;2023-04-05T04:16:39;12.67;;;7.93;;
18013;SDS011;9132;47.946;10.394;2023-04-05T04:19:07;14.83;;;8.53;;
18013;SDS011;9132;47.946;10.394;2023-04-05T04:21:33;16.77;;;8.23;;
18013;SDS011;9132;47.946;10.394;2023-04-05T04:24:00;21.87;;;12.27;;
18013;SDS011;9132;47.946;10.394;2023-04-05T04:26:26;18.83;;;11.70;;
18013;SDS011;9132;47.946;10.394;2023-04-05T04:28:53;12.67;;;8.77;;
18013;SDS011;9132;47.946;10.394;2023-04-05T04:31:20;10.10;;;7.30;;
18013;SDS011;9132;47.946;10.394;2023-04-05T04:33:48;10.47;;;7.17;;
18013;SDS011;9132;47.946;10.394;2023-04-05T04:36:16;9.03;;;6.90;;
18013;SDS011;9132;47.946;10.394;2023-04-05T04:38:58;12.10;;;7.17;;
18013;SDS011;9132;47.946;10.394;2023-04-05T04:41:26;8.33;;;6.80;;
18013;SDS011;9132;47.946;10.394;2023-04-05T04:43:53;9.57;;;6.90;;
18013;SDS011;9132;47.946;10.394;2023-04-05T04:46:22;10.00;;;6.60;;
18013;SDS011;9132;47.946;10.394;2023-04-05T04:48:54;9.83;;;6.23;;
18013;SDS011;9132;47.946;10.394;2023-04-05T04:51:23;9.67;;;6.00;;
18013;SDS011;9132;47.946;10.394;2023-04-05T04:53:50;10.73;;;6.47;;
18013;SDS011;9132;47.946;10.394;2023-04-05T04:56:16;6.70;;;5.97;;
18013;SDS011;9132;47.946;10.394;2023-04-05T04:58:43;9.20;;;6.83;;
18013;SDS011;9132;47.946;10.394;2023-04-05T05:01:09;10.63;;;7.63;;
18013;SDS011;9132;47.946;10.394;2023-04-05T05:03:36;17.33;;;10.70;;
18013;SDS011;9132;47.946;10.394;2023-04-05T05:06:03;16.47;;;11.53;;
18013;SDS011;9132;47.946;10.394;2023-04-05T05:08:31;20.33;;;10.80;;
18013;SDS011;9132;47.946;10.394;2023-04-05T05:10:57;18.30;;;11.33;;
18013;SDS011;9132;47.946;10.394;2023-04-05T05:13:24;17.77;;;11.03;;
18013;SDS011;9132;47.946;10.394;2023-04-05T05:15:50;16.07;;;11.00;;
18013;SDS011;9132;47.946;10.394;2023-04-05T05:18:17;16.57;;;10.67;;
18013;SDS011;9132;47.946;10.394;2023-04-05T05:20:43;15.90;;;10.83;;
18013;SDS011;9132;47.946;10.394;2023-04-05T05:23:10;12.10;;;7.43;;
18013;SDS011;9132;47.946;10.394;2023-04-05T05:25:37;7.90;;;6.63;;
18013;SDS011;9132;47.946;10.394;2023-04-05T05:28:04;7.00;;;5.90;;
18013;SDS011;9132;47.946;10.394;2023-04-05T05:30:30;7.67;;;6.87;;
18013;SDS011;9132;47.946;10.394;2023-04-05T05:32:57;9.17;;;6.57;;
18013;SDS011;9132;47.946;10.394;2023-04-05T05:35:24;12.27;;;7.30;;
18013;SDS011;9132;47.946;10.394;2023-04-05T05:37:51;9.33;;;6.60;;
18013;SDS011;9132;47.946;10.394;2023-04-05T05:40:18;9.87;;;7.43;;
18013;SDS011;9132;47.946;10.394;2023-04-05T05:42:46;12.03;;;7.97;;
18013;SDS011;9132;47.946;10.394;2023-04-05T05:45:12;9.33;;;7.10;;
18013;SDS011;9132;47.946;10.394;2023-04-05T05:47:38;10.23;;;7.67;;
18013;SDS011;9132;47.946;10.394;2023-04-05T05:50:06;16.47;;;8.57;;
18013;SDS011;9132;47.946;10.394;2023-04-05T05:52:34;9.57;;;7.97;;
18013;SDS011;9132;47.946;10.394;2023-04-05T05:55:00;10.73;;;7.27;;
18013;SDS011;9132;47.946;10.394;2023-04-05T05:57:27;10.03;;;6.30;;
18013;SDS011;9132;47.946;10.394;2023-04-05T05:59:55;8.60;;;6.67;;
18013;SDS011;9132;47.946;10.394;2023-04-05T06:02:21;10.57;;;6.70;;
18013;SDS011;9132;47.946;10.394;2023-04-05T06:04:48;9.30;;;6.93;;
18013;SDS011;9132;47.946;10.394;2023-04-05T06:07:14;8.83;;;6.40;;
18013;SDS011;9132;47.946;10.394;2023-04-05T06:09:41;7.70;;;6.63;;
18013;SDS011;9132;47.946;10.394;2023-04-05T06:12:09;12.43;;;7.30;;
18013;SDS011;9132;47.946;10.394;2023-04-05T06:14:35;10.80;;;7.00;;
18013;SDS011;9132;47.946;10.394;2023-04-05T06:17:03;9.80;;;7.60;;
18013;SDS011;9132;47.946;10.394;2023-04-05T06:19:29;8.00;;;7.17;;
18013;SDS011;9132;47.946;10.394;2023-04-05T06:21:56;12.17;;;8.13;;
18013;SDS011;9132;47.946;10.394;2023-04-05T06:24:24;11.50;;;7.70;;
18013;SDS011;9132;47.946;10.394;2023-04-05T06:26:51;10.20;;;7.63;;
18013;SDS011;9132;47.946;10.394;2023-04-05T06:29:17;11.47;;;8.07;;
18013;SDS011;9132;47.946;10.394;2023-04-05T06:31:44;8.80;;;6.90;;
18013;SDS011;9132;47.946;10.394;2023-04-05T06:34:13;10.27;;;7.63;;
18013;SDS011;9132;47.946;10.394;2023-04-05T06:36:40;9.17;;;7.40;;
18013;SDS011;9132;47.946;10.394;2023-04-05T06:39:06;10.13;;;8.60;;
18013;SDS011;9132;47.946;10.394;2023-04-05T06:41:33;11.77;;;8.30;;
18013;SDS011;9132;47.946;10.394;2023-04-05T06:43:59;13.43;;;8.97;;
18013;SDS011;9132;47.946;10.394;2023-04-05T06:46:26;9.90;;;7.50;;
18013;SDS011;9132;47.946;10.394;2023-04-05T06:48:52;10.30;;;8.23;;
18013;SDS011;9132;47.946;10.394;2023-04-05T06:51:20;10.40;;;8.00;;
18013;SDS011;9132;47.946;10.394;2023-04-05T06:53:46;8.63;;;7.23;;
18013;SDS011;9132;47.946;10.394;2023-04-05T06:56:13;9.50;;;6.77;;
18013;SDS011;9132;47.946;10.394;2023-04-05T06:58:39;8.87;;;7.00;;
18013;SDS011;9132;47.946;10.394;2023-04-05T07:01:06;8.87;;;7.30;;
18013;SDS011;9132;47.946;10.394;2023-04-05T07:03:32;9.10;;;6.50;;
18013;SDS011;9132;47.946;10.394;2023-04-05T07:05:59;10.30;;;7.50;;
18013;SDS011;9132;47.946;10.394;2023-04-05T07:08:27;50.30;;;25.60;;
18013;SDS011;9132;47.946;10.394;2023-04-05T07:10:53;33.03;;;18.70;;
18013;SDS011;9132;47.946;10.394;2023-04-05T07:16:01;51.07;;;25.33;;
18013;SDS011;9132;47.946;10.394;2023-04-05T07:18:28;80.07;;;40.37;;
18013;SDS011;9132;47.946;10.394;2023-04-05T07:20:55;23.70;;;13.47;;
18013;SDS011;9132;47.946;10.394;2023-04-05T07:23:24;16.03;;;10.77;;
18013;SDS011;9132;47.946;10.394;2023-04-05T07:25:52;11.20;;;10.00;;
18013;SDS011;9132;47.946;10.394;2023-04-05T07:28:19;24.67;;;18.80;;
18013;SDS011;9132;47.946;10.394;2023-04-05T07:30:45;12.87;;;10.60;;
18013;SDS011;9132;47.946;10.394;2023-04-05T07:33:11;8.33;;;6.63;;
18013;SDS011;9132;47.946;10.394;2023-04-05T07:35:39;6.23;;;5.63;;
18013;SDS011;9132;47.946;10.394;2023-04-05T07:38:05;8.50;;;5.67;;
18013;SDS011;9132;47.946;10.394;2023-04-05T07:40:31;8.83;;;5.90;;
18013;SDS011;9132;47.946;10.394;2023-04-05T07:42:59;7.23;;;5.50;;
18013;SDS011;9132;47.946;10.394;2023-04-05T07:45:29;7.53;;;5.67;;
18013;SDS011;9132;47.946;10.394;2023-04-05T07:47:55;6.00;;;4.93;;
18013;SDS011;9132;47.946;10.394;2023-04-05T07:50:22;8.13;;;5.77;;
18013;SDS011;9132;47.946;10.394;2023-04-05T07:52:48;7.53;;;5.30;;
18013;SDS011;9132;47.946;10.394;2023-04-05T07:55:14;5.60;;;4.80;;
18013;SDS011;9132;47.946;10.394;2023-04-05T07:57:41;5.30;;;4.80;;
18013;SDS011;9132;47.946;10.394;2023-04-05T08:00:09;6.53;;;4.37;;
18013;SDS011;9132;47.946;10.394;2023-04-05T08:02:37;5.87;;;4.50;;
18013;SDS011;9132;47.946;10.394;2023-04-05T08:05:03;6.03;;;5.47;;
18013;SDS011;9132;47.946;10.394;2023-04-05T08:07:30;7.00;;;5.00;;
18013;SDS011;9132;47.946;10.394;2023-04-05T08:09:56;5.50;;;4.53;;
18013;SDS011;9132;47.946;10.394;2023-04-05T08:12:24;5.13;;;4.63;;
18013;SDS011;9132;47.946;10.394;2023-04-05T08:14:51;6.77;;;5.07;;
18013;SDS011;9132;47.946;10.394;2023-04-05T08:17:18;4.93;;;4.07;;
18013;SDS011;9132;47.946;10.394;2023-04-05T08:19:45;4.57;;;4.00;;
18013;SDS011;9132;47.946;10.394;2023-04-05T08:22:11;5.70;;;4.63;;
18013;SDS011;9132;47.946;10.394;2023-04-05T08:24:40;6.97;;;4.60;;
18013;SDS011;9132;47.946;10.394;2023-04-05T08:27:06;7.13;;;4.57;;
18013;SDS011;9132;47.946;10.394;2023-04-05T08:29:33;4.83;;;4.27;;
18013;SDS011;9132;47.946;10.394;2023-04-05T08:31:59;6.80;;;4.53;;
18013;SDS011;9132;47.946;10.394;2023-04-05T08:34:27;5.30;;;4.30;;
18013;SDS011;9132;47.946;10.394;2023-04-05T08:36:56;7.77;;;4.37;;
18013;SDS011;9132;47.946;10.394;2023-04-05T08:39:23;5.33;;;4.30;;
18013;SDS011;9132;47.946;10.394;2023-04-05T08:41:53;6.47;;;4.90;;
18013;SDS011;9132;47.946;10.394;2023-04-05T08:44:23;4.93;;;4.43;;
18013;SDS011;9132;47.946;10.394;2023-04-05T08:46:51;7.20;;;4.67;;
18013;SDS011;9132;47.946;10.394;2023-04-05T08:49:18;6.83;;;4.23;;
18013;SDS011;9132;47.946;10.394;2023-04-05T08:51:46;6.53;;;4.70;;
18013;SDS011;9132;47.946;10.394;2023-04-05T08:54:14;6.40;;;4.43;;
18013;SDS011;9132;47.946;10.394;2023-04-05T08:56:43;5.90;;;4.80;;
18013;SDS011;9132;47.946;10.394;2023-04-05T08:59:11;5.43;;;4.83;;
18013;SDS011;9132;47.946;10.394;2023-04-05T09:01:40;5.77;;;4.33;;
18013;SDS011;9132;47.946;10.394;2023-04-05T09:04:09;5.67;;;4.20;;
18013;SDS011;9132;47.946;10.394;2023-04-05T09:06:37;4.80;;;4.30;;
18013;SDS011;9132;47.946;10.394;2023-04-05T09:09:06;5.27;;;4.33;;
18013;SDS011;9132;47.946;10.394;2023-04-05T09:11:33;4.60;;;4.20;;
18013;SDS011;9132;47.946;10.394;2023-04-05T09:14:01;4.37;;;3.87;;
18013;SDS011;9132;47.946;10.394;2023-04-05T09:16:27;6.47;;;4.20;;
18013;SDS011;9132;47.946;10.394;2023-04-05T09:18:54;7.87;;;6.00;;
18013;SDS011;9132;47.946;10.394;2023-04-05T09:21:21;6.07;;;4.63;;
18013;SDS011;9132;47.946;10.394;2023-04-05T09:23:51;5.80;;;4.80;;
18013;SDS011;9132;47.946;10.394;2023-04-05T09:26:23;5.07;;;4.10;;
18013;SDS011;9132;47.946;10.394;2023-04-05T09:28:50;5.50;;;4.00;;
18013;SDS011;9132;47.946;10.394;2023-04-05T09:31:30;5.40;;;4.43;;
18013;SDS011;9132;47.946;10.394;2023-04-05T09:33:57;5.13;;;4.50;;
18013;SDS011;9132;47.946;10.394;2023-04-05T09:36:23;5.67;;;4.70;;
18013;SDS011;9132;47.946;10.394;2023-04-05T09:38:50;8.30;;;4.83;;
18013;SDS011;9132;47.946;10.394;2023-04-05T09:41:16;6.10;;;5.33;;
18013;SDS011;9132;47.946;10.394;2023-04-05T09:43:44;7.43;;;4.93;;
18013;SDS011;9132;47.946;10.394;2023-04-05T09:46:27;5.77;;;4.60;;
18013;SDS011;9132;47.946;10.394;2023-04-05T09:48:54;4.87;;;4.33;;
18013;SDS011;9132;47.946;10.394;2023-04-05T09:51:21;5.83;;;5.27;;
18013;SDS011;9132;47.946;10.394;2023-04-05T09:53:56;5.27;;;4.73;;
18013;SDS011;9132;47.946;10.394;2023-04-05T09:56:23;8.27;;;5.97;;
18013;SDS011;9132;47.946;10.394;2023-04-05T09:58:51;6.10;;;4.80;;
18013;SDS011;9132;47.946;10.394;2023-04-05T10:01:18;5.10;;;4.57;;
18013;SDS011;9132;47.946;10.394;2023-04-05T10:03:45;5.03;;;4.20;;
18013;SDS011;9132;47.946;10.394;2023-04-05T10:06:11;6.27;;;4.27;;
18013;SDS011;9132;47.946;10.394;2023-04-05T10:08:38;6.47;;;4.70;;
18013;SDS011;9132;47.946;10.394;2023-04-05T10:11:04;8.37;;;6.40;;
18013;SDS011;9132;47.946;10.394;2023-04-05T10:13:31;7.53;;;5.53;;
18013;SDS011;9132;47.946;10.394;2023-04-05T10:16:03;5.40;;;4.90;;
18013;SDS011;9132;47.946;10.394;2023-04-05T10:18:32;5.80;;;4.47;;
18013;SDS011;9132;47.946;10.394;2023-04-05T10:21:03;4.73;;;4.07;;
18013;SDS011;9132;47.946;10.394;2023-04-05T10:23:30;6.47;;;4.40;;
18013;SDS011;9132;47.946;10.394;2023-04-05T10:25:59;4.83;;;4.10;;
18013;SDS011;9132;47.946;10.394;2023-04-05T10:28:29;4.60;;;4.20;;
18013;SDS011;9132;47.946;10.394;2023-04-05T10:30:58;5.73;;;4.40;;
18013;SDS011;9132;47.946;10.394;2023-04-05T10:33:27;5.13;;;3.93;;
18013;SDS011;9132;47.946;10.394;2023-04-05T10:35:59;6.13;;;4.20;;
18013;SDS011;9132;47.946;10.394;2023-04-05T10:38:26;4.90;;;3.87;;
18013;SDS011;9132;47.946;10.394;2023-04-05T10:40:54;4.60;;;4.20;;
18013;SDS011;9132;47.946;10.394;2023-04-05T10:43:22;4.87;;;4.37;;
18013;SDS011;9132;47.946;10.394;2023-04-05T10:45:51;14.67;;;9.43;;
18013;SDS011;9132;47.946;10.394;2023-04-05T10:48:19;7.30;;;5.30;;
18013;SDS011;9132;47.946;10.394;2023-04-05T10:50:47;5.33;;;4.57;;
18013;SDS011;9132;47.946;10.394;2023-04-05T10:53:14;6.80;;;3.80;;
18013;SDS011;9132;47.946;10.394;2023-04-05T10:55:41;4.43;;;4.03;;
18013;SDS011;9132;47.946;10.394;2023-04-05T10:58:08;4.20;;;3.80;;
18013;SDS011;9132;47.946;10.394;2023-04-05T11:00:35;4.57;;;4.13;;
18013;SDS011;9132;47.946;10.394;2023-04-05T11:03:01;4.40;;;3.93;;
18013;SDS011;9132;47.946;10.394;2023-04-05T11:05:29;4.43;;;4.03;;
18013;SDS011;9132;47.946;10.394;2023-04-05T11:07:58;4.73;;;4.00;;
18013;SDS011;9132;47.946;10.394;2023-04-05T11:10:25;5.03;;;3.93;;
18013;SDS011;9132;47.946;10.394;2023-04-05T11:13:01;6.57;;;3.97;;
18013;SDS011;9132;47.946;10.394;2023-04-05T11:15:28;5.13;;;3.80;;
18013;SDS011;9132;47.946;10.394;2023-04-05T11:18:00;5.03;;;4.37;;
18013;SDS011;9132;47.946;10.394;2023-04-05T11:20:27;5.10;;;3.60;;
18013;SDS011;9132;47.946;10.394;2023-04-05T11:23:05;4.37;;;3.80;;
18013;SDS011;9132;47.946;10.394;2023-04-05T11:25:32;4.03;;;3.50;;
18013;SDS011;9132;47.946;10.394;2023-04-05T11:28:02;4.43;;;3.73;;
18013;SDS011;9132;47.946;10.394;2023-04-05T11:30:44;3.47;;;3.23;;
18013;SDS011;9132;47.946;10.394;2023-04-05T11:33:11;4.40;;;3.80;;
18013;SDS011;9132;47.946;10.394;2023-04-05T11:35:38;4.77;;;4.17;;
18013;SDS011;9132;47.946;10.394;2023-04-05T11:38:06;4.00;;;3.50;;
18013;SDS011;9132;47.946;10.394;2023-04-05T11:40:33;4.00;;;3.60;;
18013;SDS011;9132;47.946;10.394;2023-04-05T11:43:01;4.90;;;3.70;;
18013;SDS011;9132;47.946;10.394;2023-04-05T11:45:28;6.30;;;4.07;;
18013;SDS011;9132;47.946;10.394;2023-04-05T11:47:55;4.40;;;3.63;;
18013;SDS011;9132;47.946;10.394;2023-04-05T11:50:21;6.67;;;4.30;;
18013;SDS011;9132;47.946;10.394;2023-04-05T11:55:31;4.30;;;3.67;;
18013;SDS011;9132;47.946;10.394;2023-04-05T11:57:57;5.20;;;4.23;;
18013;SDS011;9132;47.946;10.394;2023-04-05T12:00:23;5.10;;;3.70;;
18013;SDS011;9132;47.946;10.394;2023-04-05T12:02:50;4.93;;;4.47;;
18013;SDS011;9132;47.946;10.394;2023-04-05T12:05:20;4.53;;;3.70;;
18013;SDS011;9132;47.946;10.394;2023-04-05T12:07:50;4.53;;;3.70;;
18013;SDS011;9132;47.946;10.394;2023-04-05T12:10:17;4.70;;;4.10;;
18013;SDS011;9132;47.946;10.394;2023-04-05T12:12:44;3.97;;;3.60;;
18013;SDS011;9132;47.946;10.394;2023-04-05T12:15:13;4.10;;;3.67;;
18013;SDS011;9132;47.946;10.394;2023-04-05T12:17:43;4.80;;;4.17;;
18013;SDS011;9132;47.946;10.394;2023-04-05T12:20:10;4.67;;;3.90;;
18013;SDS011;9132;47.946;10.394;2023-04-05T12:22:37;5.93;;;3.73;;
18013;SDS011;9132;47.946;10.394;2023-04-05T12:25:03;6.23;;;4.30;;
18013;SDS011;9132;47.946;10.394;2023-04-05T12:27:30;6.43;;;4.50;;
18013;SDS011;9132;47.946;10.394;2023-04-05T12:30:05;4.10;;;3.70;;
18013;SDS011;9132;47.946;10.394;2023-04-05T12:32:34;5.37;;;3.93;;
18013;SDS011;9132;47.946;10.394;2023-04-05T12:35:04;4.13;;;3.70;;
18013;SDS011;9132;47.946;10.394;2023-04-05T12:37:31;5.03;;;4.43;;
18013;SDS011;9132;47.946;10.394;2023-04-05T12:40:00;5.00;;;4.20;;
18013;SDS011;9132;47.946;10.394;2023-04-05T12:42:29;4.60;;;4.20;;
18013;SDS011;9132;47.946;10.394;2023-04-05T12:45:01;5.47;;;4.90;;
18013;SDS011;9132;47.946;10.394;2023-04-05T12:47:28;5.90;;;4.50;;
18013;SDS011;9132;47.946;10.394;2023-04-05T12:49:55;6.23;;;4.93;;
18013;SDS011;9132;47.946;10.394;2023-04-05T12:52:21;5.50;;;4.97;;
18013;SDS011;9132;47.946;10.394;2023-04-05T12:54:52;5.83;;;5.10;;
18013;SDS011;9132;47.946;10.394;2023-04-05T12:57:26;6.07;;;4.90;;
18013;SDS011;9132;47.946;10.394;2023-04-05T12:59:53;4.80;;;4.30;;
18013;SDS011;9132;47.946;10.394;2023-04-05T13:02:19;6.43;;;4.93;;
18013;SDS011;9132;47.946;10.394;2023-04-05T13:04:47;6.33;;;5.10;;
18013;SDS011;9132;47.946;10.394;2023-04-05T13:07:13;5.87;;;5.30;;
18013;SDS011;9132;47.946;10.394;2023-04-05T13:09:40;5.90;;;5.30;;
18013;SDS011;9132;47.946;10.394;2023-04-05T13:12:06;6.03;;;4.77;;
18013;SDS011;9132;47.946;10.394;2023-04-05T13:14:32;5.53;;;4.87;;
18013;SDS011;9132;47.946;10.394;2023-04-05T13:16:59;5.43;;;4.80;;
18013;SDS011;9132;47.946;10.394;2023-04-05T13:19:25;5.97;;;5.30;;
18013;SDS011;9132;47.946;10.394;2023-04-05T13:21:53;7.37;;;5.40;;
18013;SDS011;9132;47.946;10.394;2023-04-05T13:24:19;6.43;;;5.13;;
18013;SDS011;9132;47.946;10.394;2023-04-05T13:26:45;5.87;;;4.93;;
18013;SDS011;9132;47.946;10.394;2023-04-05T13:29:12;6.13;;;4.43;;
18013;SDS011;9132;47.946;10.394;2023-04-05T13:31:38;6.37;;;5.20;;
18013;SDS011;9132;47.946;10.394;2023-04-05T13:34:05;5.93;;;5.33;;
18013;SDS011;9132;47.946;10.394;2023-04-05T13:36:32;7.37;;;5.67;;
18013;SDS011;9132;47.946;10.394;2023-04-05T13:39:00;5.37;;;4.87;;
18013;SDS011;9132;47.946;10.394;2023-04-05T13:41:26;5.60;;;4.80;;
18013;SDS011;9132;47.946;10.394;2023-04-05T13:43:52;6.83;;;5.73;;
18013;SDS011;9132;47.946;10.394;2023-04-05T13:46:19;5.20;;;4.70;;
18013;SDS011;9132;47.946;10.394;2023-04-05T13:48:45;6.70;;;6.00;;
18013;SDS011;9132;47.946;10.394;2023-04-05T13:51:11;5.40;;;4.90;;
18013;SDS011;9132;47.946;10.394;2023-04-05T13:53:38;6.60;;;4.70;;
18013;SDS011;9132;47.946;10.394;2023-04-05T13:56:06;8.87;;;4.80;;
18013;SDS011;9132;47.946;10.394;2023-04-05T13:58:32;5.10;;;4.60;;
18013;SDS011;9132;47.946;10.394;2023-04-05T14:00:59;5.50;;;5.00;;
18013;SDS011;9132;47.946;10.394;2023-04-05T14:03:25;5.07;;;4.57;;
18013;SDS011;9132;47.946;10.394;2023-04-05T14:05:51;5.83;;;5.10;;
18013;SDS011;9132;47.946;10.394;2023-04-05T14:08:18;6.23;;;4.57;;
18013;SDS011;9132;47.946;10.394;2023-04-05T14:10:44;5.73;;;5.17;;
18013;SDS011;9132;47.946;10.394;2023-04-05T14:13:12;6.43;;;4.60;;
18013;SDS011;9132;47.946;10.394;2023-04-05T14:15:40;6.07;;;4.50;;
18013;SDS011;9132;47.946;10.394;2023-04-05T14:18:07;4.90;;;4.43;;
18013;SDS011;9132;47.946;10.394;2023-04-05T14:20:33;5.40;;;4.63;;
18013;SDS011;9132;47.946;10.394;2023-04-05T14:22:59;5.17;;;4.67;;
18013;SDS011;9132;47.946;10.394;2023-04-05T14:25:26;5.53;;;5.03;;
18013;SDS011;9132;47.946;10.394;2023-04-05T14:27:52;4.90;;;4.50;;
18013;SDS011;9132;47.946;10.394;2023-04-05T14:30:20;4.77;;;4.37;;
18013;SDS011;9132;47.946;10.394;2023-04-05T14:32:46;5.77;;;4.77;;
18013;SDS011;9132;47.946;10.394;2023-04-05T14:35:13;5.13;;;4.63;;
18013;SDS011;9132;47.946;10.394;2023-04-05T14:37:39;7.07;;;4.47;;
18013;SDS011;9132;47.946;10.394;2023-04-05T14:40:06;6.43;;;4.67;;
18013;SDS011;9132;47.946;10.394;2023-04-05T14:42:32;10.07;;;5.03;;
18013;SDS011;9132;47.946;10.394;2023-04-05T14:44:58;6.63;;;4.80;;
18013;SDS011;9132;47.946;10.394;2023-04-05T14:47:26;5.43;;;4.93;;
18013;SDS011;9132;47.946;10.394;2023-04-05T14:49:52;5.53;;;5.00;;
18013;SDS011;9132;47.946;10.394;2023-04-05T14:52:19;6.43;;;4.40;;
18013;SDS011;9132;47.946;10.394;2023-04-05T14:54:45;5.43;;;4.30;;